sensor_id;sensor_type;location;lat;lon;timestamp;P1;durP1;ratioP1;P2;durP2;ratioP2
36253;SDS011;22291;52.250;21.228;2024-02-16T00:01:10;31.00;;;16.05;;
36253;SDS011;22291;52.250;21.228;2024-02-16T00:03:37;26.80;;;14.03;;
36253;SDS011;22291;52.250;21.228;2024-02-16T00:06:04;25.52;;;13.28;;
36253;SDS011;22291;52.250;21.228;2024-02-16T00:08:32;27.47;;;14.90;;
36253;SDS011;22291;52.250;21.228;2024-02-16T00:11:00;25.05;;;15.10;;
36253;SDS011;22291;52.250;21.228;2024-02-16T00:13:26;29.37;;;16.50;;
36253;SDS011;22291;52.250;21.228;2024-02-16T00:15:54;44.38;;;22.27;;
36253;SDS011;22291;52.250;21.228;2024-02-16T00:18:20;27.95;;;13.58;;
36253;SDS011;22291;52.250;21.228;2024-02-16T00:20:46;27.02;;;13.45;;
36253;SDS011;22291;52.250;21.228;2024-02-16T00:23:12;24.70;;;12.37;;
36253;SDS011;22291;52.250;21.228;2024-02-16T00:25:39;27.52;;;13.72;;
36253;SDS011;22291;52.250;21.228;2024-02-16T00:28:06;23.67;;;13.85;;
36253;SDS011;22291;52.250;21.228;2024-02-16T00:30:34;25.70;;;12.82;;
36253;SDS011;22291;52.250;21.228;2024-02-16T00:33:02;24.32;;;13.35;;
36253;SDS011;22291;52.250;21.228;2024-02-16T00:35:29;23.67;;;12.40;;
36253;SDS011;22291;52.250;21.228;2024-02-16T00:37:57;20.88;;;12.28;;
36253;SDS011;22291;52.250;21.228;2024-02-16T00:40:24;20.85;;;10.63;;
36253;SDS011;22291;52.250;21.228;2024-02-16T00:42:52;19.92;;;11.68;;
36253;SDS011;22291;52.250;21.228;2024-02-16T00:45:18;22.10;;;11.40;;
36253;SDS011;22291;52.250;21.228;2024-02-16T00:47:45;23.32;;;11.60;;
36253;SDS011;22291;52.250;21.228;2024-02-16T00:50:12;23.70;;;11.93;;
36253;SDS011;22291;52.250;21.228;2024-02-16T00:52:38;21.52;;;12.63;;
36253;SDS011;22291;52.250;21.228;2024-02-16T00:55:06;22.35;;;12.88;;
36253;SDS011;22291;52.250;21.228;2024-02-16T00:57:33;23.57;;;12.47;;
36253;SDS011;22291;52.250;21.228;2024-02-16T01:00:00;19.05;;;11.18;;
36253;SDS011;22291;52.250;21.228;2024-02-16T01:02:26;22.82;;;11.70;;
36253;SDS011;22291;52.250;21.228;2024-02-16T01:04:53;22.80;;;12.10;;
36253;SDS011;22291;52.250;21.228;2024-02-16T01:07:21;20.20;;;12.47;;
36253;SDS011;22291;52.250;21.228;2024-02-16T01:09:47;19.92;;;11.90;;
36253;SDS011;22291;52.250;21.228;2024-02-16T01:12:14;20.88;;;11.15;;
36253;SDS011;22291;52.250;21.228;2024-02-16T01:14:40;19.45;;;11.70;;
36253;SDS011;22291;52.250;21.228;2024-02-16T01:17:07;18.75;;;10.43;;
36253;SDS011;22291;52.250;21.228;2024-02-16T01:19:34;20.48;;;9.98;;
36253;SDS011;22291;52.250;21.228;2024-02-16T01:22:01;15.43;;;10.48;;
36253;SDS011;22291;52.250;21.228;2024-02-16T01:24:29;19.30;;;10.80;;
36253;SDS011;22291;52.250;21.228;2024-02-16T01:26:55;18.60;;;10.28;;
36253;SDS011;22291;52.250;21.228;2024-02-16T01:29:23;15.58;;;9.93;;
36253;SDS011;22291;52.250;21.228;2024-02-16T01:31:49;16.23;;;9.63;;
36253;SDS011;22291;52.250;21.228;2024-02-16T01:34:15;18.75;;;10.45;;
36253;SDS011;22291;52.250;21.228;2024-02-16T01:36:42;16.05;;;10.10;;
36253;SDS011;22291;52.250;21.228;2024-02-16T01:39:08;14.55;;;9.40;;
36253;SDS011;22291;52.250;21.228;2024-02-16T01:41:37;17.32;;;9.73;;
36253;SDS011;22291;52.250;21.228;2024-02-16T01:44:05;14.43;;;9.50;;
36253;SDS011;22291;52.250;21.228;2024-02-16T01:46:33;17.67;;;9.60;;
36253;SDS011;22291;52.250;21.228;2024-02-16T01:49:01;18.40;;;9.88;;
36253;SDS011;22291;52.250;21.228;2024-02-16T01:51:28;18.50;;;10.18;;
36253;SDS011;22291;52.250;21.228;2024-02-16T01:53:56;16.52;;;9.33;;
36253;SDS011;22291;52.250;21.228;2024-02-16T01:56:23;16.10;;;9.73;;
36253;SDS011;22291;52.250;21.228;2024-02-16T01:58:51;15.53;;;9.38;;
36253;SDS011;22291;52.250;21.228;2024-02-16T02:01:18;14.38;;;9.28;;
36253;SDS011;22291;52.250;21.228;2024-02-16T02:03:44;16.97;;;9.65;;
36253;SDS011;22291;52.250;21.228;2024-02-16T02:06:11;14.40;;;9.20;;
36253;SDS011;22291;52.250;21.228;2024-02-16T02:08:37;14.45;;;9.20;;
36253;SDS011;22291;52.250;21.228;2024-02-16T02:11:04;14.03;;;8.43;;
36253;SDS011;22291;52.250;21.228;2024-02-16T02:13:31;16.37;;;8.85;;
36253;SDS011;22291;52.250;21.228;2024-02-16T02:15:58;13.30;;;9.00;;
36253;SDS011;22291;52.250;21.228;2024-02-16T02:18:25;15.85;;;8.75;;
36253;SDS011;22291;52.250;21.228;2024-02-16T02:20:52;15.32;;;9.23;;
36253;SDS011;22291;52.250;21.228;2024-02-16T02:23:19;18.10;;;9.08;;
36253;SDS011;22291;52.250;21.228;2024-02-16T02:25:46;14.25;;;8.58;;
36253;SDS011;22291;52.250;21.228;2024-02-16T02:28:14;17.70;;;9.38;;
36253;SDS011;22291;52.250;21.228;2024-02-16T02:30:41;15.43;;;8.58;;
36253;SDS011;22291;52.250;21.228;2024-02-16T02:33:11;15.83;;;8.78;;
36253;SDS011;22291;52.250;21.228;2024-02-16T02:35:39;18.07;;;8.90;;
36253;SDS011;22291;52.250;21.228;2024-02-16T02:38:06;17.55;;;10.23;;
36253;SDS011;22291;52.250;21.228;2024-02-16T02:40:32;15.40;;;8.78;;
36253;SDS011;22291;52.250;21.228;2024-02-16T02:42:59;14.70;;;9.13;;
36253;SDS011;22291;52.250;21.228;2024-02-16T02:45:26;17.92;;;9.68;;
36253;SDS011;22291;52.250;21.228;2024-02-16T02:47:52;14.60;;;9.60;;
36253;SDS011;22291;52.250;21.228;2024-02-16T02:50:19;15.78;;;8.58;;
36253;SDS011;22291;52.250;21.228;2024-02-16T02:52:45;13.75;;;9.28;;
36253;SDS011;22291;52.250;21.228;2024-02-16T02:55:11;14.83;;;8.95;;
36253;SDS011;22291;52.250;21.228;2024-02-16T02:57:38;14.53;;;8.98;;
36253;SDS011;22291;52.250;21.228;2024-02-16T03:00:05;14.35;;;8.65;;
36253;SDS011;22291;52.250;21.228;2024-02-16T03:02:37;15.18;;;9.10;;
36253;SDS011;22291;52.250;21.228;2024-02-16T03:05:08;15.75;;;8.93;;
36253;SDS011;22291;52.250;21.228;2024-02-16T03:07:35;17.73;;;10.35;;
36253;SDS011;22291;52.250;21.228;2024-02-16T03:10:01;17.30;;;9.80;;
36253;SDS011;22291;52.250;21.228;2024-02-16T03:12:31;17.35;;;9.58;;
36253;SDS011;22291;52.250;21.228;2024-02-16T03:14:58;15.55;;;9.90;;
36253;SDS011;22291;52.250;21.228;2024-02-16T03:17:24;16.90;;;9.25;;
36253;SDS011;22291;52.250;21.228;2024-02-16T03:19:50;17.15;;;9.38;;
36253;SDS011;22291;52.250;21.228;2024-02-16T03:22:17;16.73;;;9.13;;
36253;SDS011;22291;52.250;21.228;2024-02-16T03:24:43;16.05;;;9.55;;
36253;SDS011;22291;52.250;21.228;2024-02-16T03:27:10;19.45;;;10.48;;
36253;SDS011;22291;52.250;21.228;2024-02-16T03:29:37;15.43;;;10.10;;
36253;SDS011;22291;52.250;21.228;2024-02-16T03:32:03;19.57;;;10.70;;
36253;SDS011;22291;52.250;21.228;2024-02-16T03:34:30;15.72;;;10.23;;
36253;SDS011;22291;52.250;21.228;2024-02-16T03:36:56;22.48;;;10.88;;
36253;SDS011;22291;52.250;21.228;2024-02-16T03:39:24;17.50;;;10.48;;
36253;SDS011;22291;52.250;21.228;2024-02-16T03:41:51;17.87;;;10.95;;
36253;SDS011;22291;52.250;21.228;2024-02-16T03:44:17;18.23;;;10.45;;
36253;SDS011;22291;52.250;21.228;2024-02-16T03:46:43;18.62;;;10.00;;
36253;SDS011;22291;52.250;21.228;2024-02-16T03:49:09;23.07;;;10.98;;
36253;SDS011;22291;52.250;21.228;2024-02-16T03:51:36;20.77;;;11.03;;
36253;SDS011;22291;52.250;21.228;2024-02-16T03:54:03;16.15;;;10.55;;
36253;SDS011;22291;52.250;21.228;2024-02-16T03:56:30;20.08;;;10.95;;
36253;SDS011;22291;52.250;21.228;2024-02-16T03:58:57;16.65;;;11.28;;
36253;SDS011;22291;52.250;21.228;2024-02-16T04:01:24;19.57;;;11.10;;
36253;SDS011;22291;52.250;21.228;2024-02-16T04:03:50;15.70;;;10.35;;
36253;SDS011;22291;52.250;21.228;2024-02-16T04:06:19;19.52;;;11.38;;
36253;SDS011;22291;52.250;21.228;2024-02-16T04:08:45;19.02;;;11.03;;
36253;SDS011;22291;52.250;21.228;2024-02-16T04:11:14;17.30;;;10.68;;
36253;SDS011;22291;52.250;21.228;2024-02-16T04:13:41;17.15;;;10.30;;
36253;SDS011;22291;52.250;21.228;2024-02-16T04:16:07;17.45;;;11.18;;
36253;SDS011;22291;52.250;21.228;2024-02-16T04:18:33;17.82;;;11.22;;
36253;SDS011;22291;52.250;21.228;2024-02-16T04:21:00;19.27;;;11.00;;
36253;SDS011;22291;52.250;21.228;2024-02-16T04:23:27;19.98;;;10.75;;
36253;SDS011;22291;52.250;21.228;2024-02-16T04:25:53;18.85;;;10.75;;
36253;SDS011;22291;52.250;21.228;2024-02-16T04:28:19;21.48;;;12.37;;
36253;SDS011;22291;52.250;21.228;2024-02-16T04:30:46;19.27;;;10.93;;
36253;SDS011;22291;52.250;21.228;2024-02-16T04:33:12;20.45;;;11.22;;
36253;SDS011;22291;52.250;21.228;2024-02-16T04:35:38;20.40;;;11.08;;
36253;SDS011;22291;52.250;21.228;2024-02-16T04:38:05;18.10;;;11.00;;
36253;SDS011;22291;52.250;21.228;2024-02-16T04:40:36;20.05;;;10.88;;
36253;SDS011;22291;52.250;21.228;2024-02-16T04:43:03;18.37;;;11.18;;
36253;SDS011;22291;52.250;21.228;2024-02-16T04:45:30;17.15;;;11.22;;
36253;SDS011;22291;52.250;21.228;2024-02-16T04:47:56;18.40;;;11.10;;
36253;SDS011;22291;52.250;21.228;2024-02-16T04:50:24;18.98;;;9.93;;
36253;SDS011;22291;52.250;21.228;2024-02-16T04:52:51;19.92;;;10.90;;
36253;SDS011;22291;52.250;21.228;2024-02-16T04:55:17;21.05;;;11.33;;
36253;SDS011;22291;52.250;21.228;2024-02-16T04:57:43;21.25;;;11.00;;
36253;SDS011;22291;52.250;21.228;2024-02-16T05:00:10;22.13;;;11.18;;
36253;SDS011;22291;52.250;21.228;2024-02-16T05:02:38;24.32;;;12.03;;
36253;SDS011;22291;52.250;21.228;2024-02-16T05:05:06;22.93;;;12.23;;
36253;SDS011;22291;52.250;21.228;2024-02-16T05:07:33;19.98;;;11.48;;
36253;SDS011;22291;52.250;21.228;2024-02-16T05:10:02;20.97;;;11.43;;
36253;SDS011;22291;52.250;21.228;2024-02-16T05:12:29;18.67;;;12.25;;
36253;SDS011;22291;52.250;21.228;2024-02-16T05:14:56;21.35;;;12.20;;
36253;SDS011;22291;52.250;21.228;2024-02-16T05:17:22;21.35;;;12.10;;
36253;SDS011;22291;52.250;21.228;2024-02-16T05:19:49;21.65;;;11.45;;
36253;SDS011;22291;52.250;21.228;2024-02-16T05:22:16;23.10;;;11.85;;
36253;SDS011;22291;52.250;21.228;2024-02-16T05:24:47;18.32;;;11.75;;
36253;SDS011;22291;52.250;21.228;2024-02-16T05:27:14;21.33;;;11.78;;
36253;SDS011;22291;52.250;21.228;2024-02-16T05:29:40;21.30;;;12.15;;
36253;SDS011;22291;52.250;21.228;2024-02-16T05:32:08;25.02;;;12.78;;
36253;SDS011;22291;52.250;21.228;2024-02-16T05:34:36;20.52;;;12.18;;
36253;SDS011;22291;52.250;21.228;2024-02-16T05:37:04;21.68;;;12.47;;
36253;SDS011;22291;52.250;21.228;2024-02-16T05:39:32;22.62;;;12.53;;
36253;SDS011;22291;52.250;21.228;2024-02-16T05:42:03;24.47;;;12.75;;
36253;SDS011;22291;52.250;21.228;2024-02-16T05:44:32;20.32;;;13.28;;
36253;SDS011;22291;52.250;21.228;2024-02-16T05:46:58;23.87;;;13.13;;
36253;SDS011;22291;52.250;21.228;2024-02-16T05:49:25;22.75;;;12.40;;
36253;SDS011;22291;52.250;21.228;2024-02-16T05:51:52;21.85;;;12.82;;
36253;SDS011;22291;52.250;21.228;2024-02-16T05:54:33;23.38;;;12.80;;
36253;SDS011;22291;52.250;21.228;2024-02-16T05:56:59;21.48;;;12.18;;
36253;SDS011;22291;52.250;21.228;2024-02-16T05:59:26;26.70;;;14.38;;
36253;SDS011;22291;52.250;21.228;2024-02-16T06:01:53;25.23;;;13.70;;
36253;SDS011;22291;52.250;21.228;2024-02-16T06:04:19;26.17;;;13.40;;
36253;SDS011;22291;52.250;21.228;2024-02-16T06:06:45;23.55;;;13.18;;
36253;SDS011;22291;52.250;21.228;2024-02-16T06:09:12;26.15;;;13.85;;
36253;SDS011;22291;52.250;21.228;2024-02-16T06:11:38;31.62;;;13.55;;
36253;SDS011;22291;52.250;21.228;2024-02-16T06:14:05;22.95;;;12.70;;
36253;SDS011;22291;52.250;21.228;2024-02-16T06:16:31;23.80;;;12.47;;
36253;SDS011;22291;52.250;21.228;2024-02-16T06:18:57;26.95;;;13.53;;
36253;SDS011;22291;52.250;21.228;2024-02-16T06:21:24;24.30;;;13.58;;
36253;SDS011;22291;52.250;21.228;2024-02-16T06:23:50;26.68;;;14.10;;
36253;SDS011;22291;52.250;21.228;2024-02-16T06:26:17;22.52;;;13.20;;
36253;SDS011;22291;52.250;21.228;2024-02-16T06:28:43;27.48;;;14.23;;
36253;SDS011;22291;52.250;21.228;2024-02-16T06:31:10;25.55;;;14.00;;
36253;SDS011;22291;52.250;21.228;2024-02-16T06:33:40;23.22;;;13.20;;
36253;SDS011;22291;52.250;21.228;2024-02-16T06:36:07;27.30;;;14.05;;
36253;SDS011;22291;52.250;21.228;2024-02-16T06:38:36;21.70;;;14.07;;
36253;SDS011;22291;52.250;21.228;2024-02-16T06:41:03;28.38;;;14.03;;
36253;SDS011;22291;52.250;21.228;2024-02-16T06:43:30;26.80;;;14.35;;
36253;SDS011;22291;52.250;21.228;2024-02-16T06:45:57;27.20;;;14.13;;
36253;SDS011;22291;52.250;21.228;2024-02-16T06:48:23;25.45;;;14.20;;
36253;SDS011;22291;52.250;21.228;2024-02-16T06:50:50;24.40;;;14.65;;
36253;SDS011;22291;52.250;21.228;2024-02-16T06:53:17;35.03;;;15.83;;
36253;SDS011;22291;52.250;21.228;2024-02-16T06:55:44;27.35;;;14.35;;
36253;SDS011;22291;52.250;21.228;2024-02-16T06:58:10;27.20;;;14.93;;
36253;SDS011;22291;52.250;21.228;2024-02-16T07:00:37;25.52;;;14.65;;
36253;SDS011;22291;52.250;21.228;2024-02-16T07:03:04;27.80;;;14.73;;
36253;SDS011;22291;52.250;21.228;2024-02-16T07:05:31;24.18;;;14.05;;
36253;SDS011;22291;52.250;21.228;2024-02-16T07:15:57;30.57;;;14.47;;
36253;SDS011;22291;52.250;21.228;2024-02-16T07:18:25;27.98;;;13.78;;
36253;SDS011;22291;52.250;21.228;2024-02-16T07:20:53;27.62;;;14.47;;
36253;SDS011;22291;52.250;21.228;2024-02-16T07:23:20;26.70;;;14.23;;
36253;SDS011;22291;52.250;21.228;2024-02-16T07:25:47;29.23;;;13.95;;
36253;SDS011;22291;52.250;21.228;2024-02-16T07:28:15;26.60;;;13.98;;
36253;SDS011;22291;52.250;21.228;2024-02-16T07:30:42;27.05;;;14.63;;
36253;SDS011;22291;52.250;21.228;2024-02-16T07:33:11;29.23;;;14.05;;
36253;SDS011;22291;52.250;21.228;2024-02-16T07:35:39;28.25;;;14.33;;
36253;SDS011;22291;52.250;21.228;2024-02-16T07:38:06;25.60;;;14.00;;
36253;SDS011;22291;52.250;21.228;2024-02-16T07:40:33;23.12;;;13.50;;
36253;SDS011;22291;52.250;21.228;2024-02-16T07:43:01;24.47;;;12.55;;
36253;SDS011;22291;52.250;21.228;2024-02-16T07:45:29;22.23;;;13.17;;
36253;SDS011;22291;52.250;21.228;2024-02-16T07:47:57;23.00;;;12.47;;
36253;SDS011;22291;52.250;21.228;2024-02-16T07:50:24;21.80;;;12.10;;
36253;SDS011;22291;52.250;21.228;2024-02-16T07:52:52;18.60;;;11.35;;
36253;SDS011;22291;52.250;21.228;2024-02-16T07:55:21;23.40;;;11.70;;
36253;SDS011;22291;52.250;21.228;2024-02-16T07:57:50;16.77;;;10.25;;
36253;SDS011;22291;52.250;21.228;2024-02-16T08:00:18;19.95;;;11.38;;
36253;SDS011;22291;52.250;21.228;2024-02-16T08:02:47;18.65;;;11.48;;
36253;SDS011;22291;52.250;21.228;2024-02-16T08:05:14;17.12;;;10.48;;
36253;SDS011;22291;52.250;21.228;2024-02-16T08:07:42;19.42;;;10.90;;
36253;SDS011;22291;52.250;21.228;2024-02-16T08:10:09;19.35;;;10.70;;
36253;SDS011;22291;52.250;21.228;2024-02-16T08:15:06;19.37;;;11.20;;
36253;SDS011;22291;52.250;21.228;2024-02-16T08:17:34;18.92;;;10.82;;
36253;SDS011;22291;52.250;21.228;2024-02-16T08:20:06;21.62;;;11.80;;
36253;SDS011;22291;52.250;21.228;2024-02-16T08:22:36;16.77;;;10.28;;
36253;SDS011;22291;52.250;21.228;2024-02-16T08:25:06;19.73;;;10.70;;
36253;SDS011;22291;52.250;21.228;2024-02-16T08:27:34;20.25;;;11.90;;
36253;SDS011;22291;52.250;21.228;2024-02-16T08:30:01;18.87;;;11.00;;
36253;SDS011;22291;52.250;21.228;2024-02-16T08:32:30;16.60;;;10.68;;
36253;SDS011;22291;52.250;21.228;2024-02-16T08:34:57;19.55;;;11.38;;
36253;SDS011;22291;52.250;21.228;2024-02-16T08:37:25;16.40;;;10.38;;
36253;SDS011;22291;52.250;21.228;2024-02-16T08:39:52;23.65;;;10.78;;
36253;SDS011;22291;52.250;21.228;2024-02-16T08:42:20;18.73;;;11.65;;
36253;SDS011;22291;52.250;21.228;2024-02-16T08:44:49;14.18;;;10.23;;
36253;SDS011;22291;52.250;21.228;2024-02-16T08:47:18;16.90;;;9.73;;
36253;SDS011;22291;52.250;21.228;2024-02-16T08:49:46;14.73;;;9.43;;
36253;SDS011;22291;52.250;21.228;2024-02-16T08:52:13;17.25;;;10.82;;
36253;SDS011;22291;52.250;21.228;2024-02-16T08:54:42;17.52;;;9.85;;
36253;SDS011;22291;52.250;21.228;2024-02-16T08:57:09;16.60;;;9.98;;
36253;SDS011;22291;52.250;21.228;2024-02-16T08:59:37;17.52;;;9.83;;
36253;SDS011;22291;52.250;21.228;2024-02-16T09:02:04;13.65;;;9.40;;
36253;SDS011;22291;52.250;21.228;2024-02-16T09:04:33;18.25;;;10.60;;
36253;SDS011;22291;52.250;21.228;2024-02-16T09:07:01;16.52;;;10.55;;
36253;SDS011;22291;52.250;21.228;2024-02-16T09:09:29;20.72;;;13.75;;
36253;SDS011;22291;52.250;21.228;2024-02-16T09:11:57;14.20;;;9.30;;
36253;SDS011;22291;52.250;21.228;2024-02-16T09:14:24;13.70;;;9.03;;
36253;SDS011;22291;52.250;21.228;2024-02-16T09:16:52;16.07;;;9.30;;
36253;SDS011;22291;52.250;21.228;2024-02-16T09:19:20;15.35;;;9.48;;
36253;SDS011;22291;52.250;21.228;2024-02-16T09:21:48;14.65;;;9.28;;
36253;SDS011;22291;52.250;21.228;2024-02-16T09:24:17;14.63;;;9.00;;
36253;SDS011;22291;52.250;21.228;2024-02-16T09:26:44;14.95;;;8.33;;
36253;SDS011;22291;52.250;21.228;2024-02-16T09:29:12;16.70;;;9.83;;
36253;SDS011;22291;52.250;21.228;2024-02-16T09:31:42;14.15;;;9.53;;
36253;SDS011;22291;52.250;21.228;2024-02-16T09:34:11;13.20;;;9.20;;
36253;SDS011;22291;52.250;21.228;2024-02-16T09:36:39;14.40;;;9.80;;
36253;SDS011;22291;52.250;21.228;2024-02-16T09:39:12;17.02;;;10.50;;
36253;SDS011;22291;52.250;21.228;2024-02-16T09:41:41;22.90;;;11.08;;
36253;SDS011;22291;52.250;21.228;2024-02-16T09:44:11;16.02;;;9.43;;
36253;SDS011;22291;52.250;21.228;2024-02-16T09:46:39;14.25;;;9.75;;
36253;SDS011;22291;52.250;21.228;2024-02-16T09:49:06;13.83;;;9.85;;
36253;SDS011;22291;52.250;21.228;2024-02-16T09:51:37;17.23;;;9.50;;
36253;SDS011;22291;52.250;21.228;2024-02-16T09:54:06;17.17;;;10.48;;
36253;SDS011;22291;52.250;21.228;2024-02-16T09:56:33;16.97;;;10.48;;
36253;SDS011;22291;52.250;21.228;2024-02-16T09:59:01;14.87;;;9.53;;
36253;SDS011;22291;52.250;21.228;2024-02-16T10:01:27;13.30;;;8.83;;
36253;SDS011;22291;52.250;21.228;2024-02-16T10:04:05;18.30;;;10.10;;
36253;SDS011;22291;52.250;21.228;2024-02-16T10:06:48;15.75;;;9.30;;
36253;SDS011;22291;52.250;21.228;2024-02-16T10:09:23;13.38;;;8.50;;
36253;SDS011;22291;52.250;21.228;2024-02-16T10:12:01;14.63;;;9.15;;
36253;SDS011;22291;52.250;21.228;2024-02-16T10:14:29;12.15;;;8.20;;
36253;SDS011;22291;52.250;21.228;2024-02-16T10:17:02;13.17;;;8.40;;
36253;SDS011;22291;52.250;21.228;2024-02-16T10:19:28;11.63;;;8.13;;
36253;SDS011;22291;52.250;21.228;2024-02-16T10:22:13;11.53;;;7.55;;
36253;SDS011;22291;52.250;21.228;2024-02-16T10:24:39;12.30;;;8.35;;
36253;SDS011;22291;52.250;21.228;2024-02-16T10:27:14;12.70;;;8.90;;
36253;SDS011;22291;52.250;21.228;2024-02-16T10:29:53;11.65;;;7.80;;
36253;SDS011;22291;52.250;21.228;2024-02-16T10:32:17;12.00;;;7.92;;
36253;SDS011;22291;52.250;21.228;2024-02-16T10:34:46;12.40;;;7.80;;
36253;SDS011;22291;52.250;21.228;2024-02-16T10:37:15;11.48;;;7.15;;
36253;SDS011;22291;52.250;21.228;2024-02-16T10:39:44;13.35;;;7.15;;
36253;SDS011;22291;52.250;21.228;2024-02-16T10:42:14;15.05;;;7.87;;
36253;SDS011;22291;52.250;21.228;2024-02-16T10:44:44;10.45;;;6.22;;
36253;SDS011;22291;52.250;21.228;2024-02-16T10:47:15;9.23;;;6.33;;
36253;SDS011;22291;52.250;21.228;2024-02-16T10:49:42;7.87;;;6.12;;
36253;SDS011;22291;52.250;21.228;2024-02-16T10:52:10;9.53;;;6.80;;
36253;SDS011;22291;52.250;21.228;2024-02-16T10:54:40;7.37;;;5.42;;
36253;SDS011;22291;52.250;21.228;2024-02-16T10:57:09;12.55;;;6.33;;
36253;SDS011;22291;52.250;21.228;2024-02-16T10:59:41;8.65;;;6.30;;
36253;SDS011;22291;52.250;21.228;2024-02-16T11:02:13;11.35;;;6.50;;
36253;SDS011;22291;52.250;21.228;2024-02-16T11:04:44;8.90;;;6.10;;
36253;SDS011;22291;52.250;21.228;2024-02-16T11:07:14;11.60;;;7.20;;
36253;SDS011;22291;52.250;21.228;2024-02-16T11:09:45;9.83;;;7.17;;
36253;SDS011;22291;52.250;21.228;2024-02-16T11:12:14;13.22;;;6.87;;
36253;SDS011;22291;52.250;21.228;2024-02-16T11:14:48;12.37;;;7.67;;
36253;SDS011;22291;52.250;21.228;2024-02-16T11:17:20;10.50;;;6.33;;
36253;SDS011;22291;52.250;21.228;2024-02-16T11:19:49;9.78;;;6.67;;
36253;SDS011;22291;52.250;21.228;2024-02-16T11:22:20;10.85;;;7.55;;
36253;SDS011;22291;52.250;21.228;2024-02-16T11:24:50;10.05;;;7.00;;
36253;SDS011;22291;52.250;21.228;2024-02-16T11:27:20;15.95;;;13.08;;
36253;SDS011;22291;52.250;21.228;2024-02-16T11:29:49;8.80;;;6.67;;
36253;SDS011;22291;52.250;21.228;2024-02-16T11:32:20;9.15;;;6.45;;
36253;SDS011;22291;52.250;21.228;2024-02-16T11:34:47;8.95;;;6.67;;
36253;SDS011;22291;52.250;21.228;2024-02-16T11:37:13;13.05;;;7.65;;
36253;SDS011;22291;52.250;21.228;2024-02-16T11:39:40;13.35;;;7.45;;
36253;SDS011;22291;52.250;21.228;2024-02-16T11:42:09;10.08;;;6.87;;
36253;SDS011;22291;52.250;21.228;2024-02-16T11:44:39;11.57;;;7.30;;
36253;SDS011;22291;52.250;21.228;2024-02-16T11:47:10;9.63;;;7.20;;
36253;SDS011;22291;52.250;21.228;2024-02-16T11:49:38;14.18;;;8.58;;
36253;SDS011;22291;52.250;21.228;2024-02-16T11:52:06;10.43;;;8.25;;
36253;SDS011;22291;52.250;21.228;2024-02-16T11:54:34;14.23;;;8.85;;
36253;SDS011;22291;52.250;21.228;2024-02-16T11:57:03;13.97;;;7.77;;
36253;SDS011;22291;52.250;21.228;2024-02-16T11:59:31;10.58;;;7.20;;
36253;SDS011;22291;52.250;21.228;2024-02-16T12:01:58;13.38;;;8.35;;
36253;SDS011;22291;52.250;21.228;2024-02-16T12:04:27;10.20;;;7.00;;
36253;SDS011;22291;52.250;21.228;2024-02-16T12:06:59;12.82;;;8.03;;
36253;SDS011;22291;52.250;21.228;2024-02-16T12:09:28;12.28;;;8.35;;
36253;SDS011;22291;52.250;21.228;2024-02-16T12:14:23;13.30;;;8.00;;
36253;SDS011;22291;52.250;21.228;2024-02-16T12:16:51;11.80;;;7.50;;
36253;SDS011;22291;52.250;21.228;2024-02-16T12:19:24;11.50;;;7.35;;
36253;SDS011;22291;52.250;21.228;2024-02-16T12:21:52;14.47;;;7.92;;
36253;SDS011;22291;52.250;21.228;2024-02-16T12:24:20;14.53;;;7.92;;
36253;SDS011;22291;52.250;21.228;2024-02-16T12:26:48;10.48;;;7.58;;
36253;SDS011;22291;52.250;21.228;2024-02-16T12:29:16;10.55;;;7.05;;
36253;SDS011;22291;52.250;21.228;2024-02-16T12:31:44;12.20;;;7.58;;
36253;SDS011;22291;52.250;21.228;2024-02-16T12:34:13;9.45;;;6.60;;
36253;SDS011;22291;52.250;21.228;2024-02-16T12:36:40;8.93;;;6.30;;
36253;SDS011;22291;52.250;21.228;2024-02-16T12:39:08;9.78;;;7.37;;
36253;SDS011;22291;52.250;21.228;2024-02-16T12:41:36;9.97;;;6.40;;
36253;SDS011;22291;52.250;21.228;2024-02-16T12:44:04;10.95;;;6.80;;
36253;SDS011;22291;52.250;21.228;2024-02-16T12:46:31;10.10;;;6.83;;
36253;SDS011;22291;52.250;21.228;2024-02-16T12:48:58;12.37;;;7.15;;
36253;SDS011;22291;52.250;21.228;2024-02-16T12:51:25;8.90;;;7.15;;
36253;SDS011;22291;52.250;21.228;2024-02-16T12:53:52;12.45;;;9.40;;
36253;SDS011;22291;52.250;21.228;2024-02-16T12:56:18;13.15;;;8.18;;
36253;SDS011;22291;52.250;21.228;2024-02-16T12:58:46;12.95;;;6.40;;
36253;SDS011;22291;52.250;21.228;2024-02-16T13:01:13;10.63;;;6.65;;
36253;SDS011;22291;52.250;21.228;2024-02-16T13:03:42;11.50;;;6.80;;
36253;SDS011;22291;52.250;21.228;2024-02-16T13:06:09;11.43;;;7.30;;
36253;SDS011;22291;52.250;21.228;2024-02-16T13:08:37;11.18;;;7.03;;
36253;SDS011;22291;52.250;21.228;2024-02-16T13:11:04;12.60;;;7.42;;
36253;SDS011;22291;52.250;21.228;2024-02-16T13:13:31;11.35;;;8.35;;
36253;SDS011;22291;52.250;21.228;2024-02-16T13:15:58;10.00;;;7.05;;
36253;SDS011;22291;52.250;21.228;2024-02-16T13:18:24;13.15;;;7.30;;
36253;SDS011;22291;52.250;21.228;2024-02-16T13:20:51;12.10;;;7.72;;
36253;SDS011;22291;52.250;21.228;2024-02-16T13:23:18;11.93;;;7.60;;
36253;SDS011;22291;52.250;21.228;2024-02-16T13:25:44;11.38;;;7.42;;
36253;SDS011;22291;52.250;21.228;2024-02-16T13:28:11;13.48;;;7.87;;
36253;SDS011;22291;52.250;21.228;2024-02-16T13:30:38;11.55;;;7.65;;
36253;SDS011;22291;52.250;21.228;2024-02-16T13:33:05;11.50;;;7.62;;
36253;SDS011;22291;52.250;21.228;2024-02-16T13:35:33;9.43;;;7.47;;
36253;SDS011;22291;52.250;21.228;2024-02-16T13:38:01;9.50;;;7.37;;
36253;SDS011;22291;52.250;21.228;2024-02-16T13:40:29;11.75;;;7.87;;
36253;SDS011;22291;52.250;21.228;2024-02-16T13:42:55;11.03;;;7.95;;
36253;SDS011;22291;52.250;21.228;2024-02-16T13:45:24;10.40;;;7.90;;
36253;SDS011;22291;52.250;21.228;2024-02-16T13:47:51;15.93;;;8.08;;
36253;SDS011;22291;52.250;21.228;2024-02-16T13:50:18;12.63;;;7.58;;
36253;SDS011;22291;52.250;21.228;2024-02-16T13:52:45;14.43;;;7.75;;
36253;SDS011;22291;52.250;21.228;2024-02-16T13:55:12;12.30;;;8.20;;
36253;SDS011;22291;52.250;21.228;2024-02-16T13:57:39;12.75;;;9.08;;
36253;SDS011;22291;52.250;21.228;2024-02-16T14:00:07;20.75;;;10.60;;
36253;SDS011;22291;52.250;21.228;2024-02-16T14:02:35;12.07;;;8.18;;
36253;SDS011;22291;52.250;21.228;2024-02-16T14:05:02;13.45;;;8.53;;
36253;SDS011;22291;52.250;21.228;2024-02-16T14:07:29;13.18;;;7.67;;
36253;SDS011;22291;52.250;21.228;2024-02-16T14:09:57;9.90;;;7.72;;
36253;SDS011;22291;52.250;21.228;2024-02-16T14:12:24;14.18;;;7.53;;
36253;SDS011;22291;52.250;21.228;2024-02-16T14:14:50;12.35;;;8.35;;
36253;SDS011;22291;52.250;21.228;2024-02-16T14:17:17;13.70;;;8.45;;
36253;SDS011;22291;52.250;21.228;2024-02-16T14:19:44;15.28;;;8.03;;
36253;SDS011;22291;52.250;21.228;2024-02-16T14:22:10;11.97;;;8.58;;
36253;SDS011;22291;52.250;21.228;2024-02-16T14:24:38;13.15;;;8.63;;
36253;SDS011;22291;52.250;21.228;2024-02-16T14:27:04;11.40;;;7.90;;
36253;SDS011;22291;52.250;21.228;2024-02-16T14:29:31;11.25;;;7.65;;
36253;SDS011;22291;52.250;21.228;2024-02-16T14:31:58;13.48;;;8.70;;